sensor_id;sensor_type;location;lat;lon;timestamp;pressure;altitude;pressure_sealevel;temperature;humidity
28927;BME280;16038;47.692;9.400;2023-06-22T00:01:47;96474.00;;;21.56;100.00
28927;BME280;16038;47.692;9.400;2023-06-22T00:04:12;96465.75;;;21.53;100.00
28927;BME280;16038;47.692;9.400;2023-06-22T00:09:03;96466.44;;;21.70;99.87
28927;BME280;16038;47.692;9.400;2023-06-22T00:11:28;96476.56;;;21.76;99.53
28927;BME280;16038;47.692;9.400;2023-06-22T00:13:54;96473.00;;;21.76;99.03
28927;BME280;16038;47.692;9.400;2023-06-22T00:16:19;96475.47;;;21.87;98.54
28927;BME280;16038;47.692;9.400;2023-06-22T00:18:44;96474.78;;;21.95;97.53
28927;BME280;16038;47.692;9.400;2023-06-22T00:21:13;96469.97;;;21.96;97.59
28927;BME280;16038;47.692;9.400;2023-06-22T00:23:38;96464.94;;;22.04;97.15
28927;BME280;16038;47.692;9.400;2023-06-22T00:26:03;96455.47;;;22.01;97.23
28927;BME280;16038;47.692;9.400;2023-06-22T00:28:29;96463.84;;;22.01;97.03
28927;BME280;16038;47.692;9.400;2023-06-22T00:30:54;96462.63;;;21.89;97.44
28927;BME280;16038;47.692;9.400;2023-06-22T00:33:19;96448.91;;;21.82;98.25
28927;BME280;16038;47.692;9.400;2023-06-22T00:35:45;96451.38;;;21.80;98.63
28927;BME280;16038;47.692;9.400;2023-06-22T00:38:10;96454.94;;;21.68;99.18
28927;BME280;16038;47.692;9.400;2023-06-22T00:40:36;96459.06;;;21.76;98.65
28927;BME280;16038;47.692;9.400;2023-06-22T00:45:27;96461.00;;;21.66;99.46
28927;BME280;16038;47.692;9.400;2023-06-22T00:47:55;96465.09;;;21.62;99.79
28927;BME280;16038;47.692;9.400;2023-06-22T00:50:23;96456.84;;;21.45;100.00
28927;BME280;16038;47.692;9.400;2023-06-22T00:52:56;96469.28;;;21.28;100.00
28927;BME280;16038;47.692;9.400;2023-06-22T00:55:22;96455.13;;;21.22;100.00
28927;BME280;16038;47.692;9.400;2023-06-22T00:57:48;96463.25;;;21.16;100.00
28927;BME280;16038;47.692;9.400;2023-06-22T01:00:15;96466.03;;;21.16;100.00
28927;BME280;16038;47.692;9.400;2023-06-22T01:02:45;96466.38;;;21.18;100.00
28927;BME280;16038;47.692;9.400;2023-06-22T01:05:15;96472.38;;;21.17;100.00
28927;BME280;16038;47.692;9.400;2023-06-22T01:10:40;96473.94;;;21.05;100.00
28927;BME280;16038;47.692;9.400;2023-06-22T01:13:13;96474.03;;;21.02;100.00
28927;BME280;16038;47.692;9.400;2023-06-22T01:15:46;96471.13;;;21.05;100.00
28927;BME280;16038;47.692;9.400;2023-06-22T01:18:17;96478.84;;;20.85;100.00
28927;BME280;16038;47.692;9.400;2023-06-22T01:20:43;96477.28;;;20.71;100.00
28927;BME280;16038;47.692;9.400;2023-06-22T01:26:14;96481.47;;;20.46;100.00
28927;BME280;16038;47.692;9.400;2023-06-22T01:28:50;96476.47;;;20.54;100.00
28927;BME280;16038;47.692;9.400;2023-06-22T01:31:20;96485.81;;;20.31;100.00
28927;BME280;16038;47.692;9.400;2023-06-22T01:33:51;96489.50;;;20.28;100.00
28927;BME280;16038;47.692;9.400;2023-06-22T01:36:18;96487.59;;;20.24;100.00
28927;BME280;16038;47.692;9.400;2023-06-22T01:38:45;96485.66;;;20.21;100.00
28927;BME280;16038;47.692;9.400;2023-06-22T01:41:12;96493.91;;;20.25;100.00
28927;BME280;16038;47.692;9.400;2023-06-22T01:43:38;96503.59;;;20.20;100.00
28927;BME280;16038;47.692;9.400;2023-06-22T01:46:04;96508.44;;;20.16;100.00
28927;BME280;16038;47.692;9.400;2023-06-22T01:48:30;96506.63;;;20.10;100.00
28927;BME280;16038;47.692;9.400;2023-06-22T01:50:56;96517.72;;;19.93;100.00
28927;BME280;16038;47.692;9.400;2023-06-22T01:53:24;96507.13;;;19.88;100.00
28927;BME280;16038;47.692;9.400;2023-06-22T01:55:50;96503.63;;;19.84;100.00
28927;BME280;16038;47.692;9.400;2023-06-22T01:58:16;96511.78;;;19.75;100.00
28927;BME280;16038;47.692;9.400;2023-06-22T02:00:51;96512.47;;;19.79;100.00
28927;BME280;16038;47.692;9.400;2023-06-22T02:03:23;96510.66;;;19.72;100.00
28927;BME280;16038;47.692;9.400;2023-06-22T02:06:06;96521.75;;;19.72;100.00
28927;BME280;16038;47.692;9.400;2023-06-22T02:08:41;96528.47;;;19.75;100.00
28927;BME280;16038;47.692;9.400;2023-06-22T02:11:08;96527.81;;;19.67;100.00
28927;BME280;16038;47.692;9.400;2023-06-22T02:13:36;96534.75;;;19.59;100.00
28927;BME280;16038;47.692;9.400;2023-06-22T02:16:03;96534.97;;;19.68;100.00
28927;BME280;16038;47.692;9.400;2023-06-22T02:18:28;96532.50;;;19.54;100.00
28927;BME280;16038;47.692;9.400;2023-06-22T02:20:54;96532.28;;;19.44;100.00
28927;BME280;16038;47.692;9.400;2023-06-22T02:23:19;96534.47;;;19.53;100.00
28927;BME280;16038;47.692;9.400;2023-06-22T02:25:45;96535.63;;;19.56;100.00
28927;BME280;16038;47.692;9.400;2023-06-22T02:28:10;96541.03;;;19.63;100.00
28927;BME280;16038;47.692;9.400;2023-06-22T02:30:35;96542.56;;;19.64;100.00
28927;BME280;16038;47.692;9.400;2023-06-22T02:33:01;96546.22;;;19.61;100.00
28927;BME280;16038;47.692;9.400;2023-06-22T02:35:27;96555.59;;;19.67;100.00
28927;BME280;16038;47.692;9.400;2023-06-22T02:37:59;96542.06;;;19.69;100.00
28927;BME280;16038;47.692;9.400;2023-06-22T02:40:26;96565.59;;;19.44;100.00
28927;BME280;16038;47.692;9.400;2023-06-22T02:42:51;96569.31;;;19.38;100.00
28927;BME280;16038;47.692;9.400;2023-06-22T02:45:16;96568.47;;;19.21;100.00
28927;BME280;16038;47.692;9.400;2023-06-22T02:47:42;96569.69;;;19.00;100.00
28927;BME280;16038;47.692;9.400;2023-06-22T02:50:07;96569.06;;;18.88;100.00
28927;BME280;16038;47.692;9.400;2023-06-22T02:52:33;96563.38;;;18.96;100.00
28927;BME280;16038;47.692;9.400;2023-06-22T02:54:59;96550.31;;;18.72;100.00
28927;BME280;16038;47.692;9.400;2023-06-22T02:57:24;96557.75;;;18.56;100.00
28927;BME280;16038;47.692;9.400;2023-06-22T02:59:50;96562.88;;;18.57;100.00
28927;BME280;16038;47.692;9.400;2023-06-22T03:02:15;96570.47;;;18.53;100.00
28927;BME280;16038;47.692;9.400;2023-06-22T03:04:40;96567.88;;;18.42;100.00
28927;BME280;16038;47.692;9.400;2023-06-22T03:07:06;96572.16;;;18.47;100.00
28927;BME280;16038;47.692;9.400;2023-06-22T03:09:31;96570.84;;;18.55;100.00
28927;BME280;16038;47.692;9.400;2023-06-22T03:11:57;96568.53;;;18.50;100.00
28927;BME280;16038;47.692;9.400;2023-06-22T03:14:22;96569.44;;;18.43;100.00
28927;BME280;16038;47.692;9.400;2023-06-22T03:16:47;96576.84;;;18.26;100.00
28927;BME280;16038;47.692;9.400;2023-06-22T03:19:13;96567.88;;;18.19;100.00
28927;BME280;16038;47.692;9.400;2023-06-22T03:21:39;96565.81;;;18.23;100.00
28927;BME280;16038;47.692;9.400;2023-06-22T03:24:05;96557.50;;;18.23;100.00
28927;BME280;16038;47.692;9.400;2023-06-22T03:26:31;96554.44;;;18.17;100.00
28927;BME280;16038;47.692;9.400;2023-06-22T03:28:57;96548.81;;;17.97;100.00
28927;BME280;16038;47.692;9.400;2023-06-22T03:31:22;96543.88;;;18.08;100.00
28927;BME280;16038;47.692;9.400;2023-06-22T03:33:49;96543.75;;;18.15;100.00
28927;BME280;16038;47.692;9.400;2023-06-22T03:36:15;96548.09;;;18.17;100.00
28927;BME280;16038;47.692;9.400;2023-06-22T03:38:48;96550.75;;;18.47;100.00
28927;BME280;16038;47.692;9.400;2023-06-22T03:41:14;96547.47;;;18.76;100.00
28927;BME280;16038;47.692;9.400;2023-06-22T03:43:39;96549.72;;;19.05;100.00
28927;BME280;16038;47.692;9.400;2023-06-22T03:46:05;96545.34;;;19.07;100.00
28927;BME280;16038;47.692;9.400;2023-06-22T03:48:31;96550.53;;;18.85;100.00
28927;BME280;16038;47.692;9.400;2023-06-22T03:50:56;96545.38;;;18.84;100.00
28927;BME280;16038;47.692;9.400;2023-06-22T03:53:21;96539.59;;;18.75;100.00
28927;BME280;16038;47.692;9.400;2023-06-22T03:55:51;96548.59;;;18.82;100.00
28927;BME280;16038;47.692;9.400;2023-06-22T03:58:18;96547.47;;;19.00;100.00
28927;BME280;16038;47.692;9.400;2023-06-22T04:00:48;96541.34;;;19.28;100.00
28927;BME280;16038;47.692;9.400;2023-06-22T04:03:14;96532.09;;;19.15;100.00
28927;BME280;16038;47.692;9.400;2023-06-22T04:05:40;96537.28;;;19.13;100.00
28927;BME280;16038;47.692;9.400;2023-06-22T04:08:06;96542.59;;;19.44;100.00
28927;BME280;16038;47.692;9.400;2023-06-22T04:10:32;96549.91;;;19.74;100.00
28927;BME280;16038;47.692;9.400;2023-06-22T04:12:58;96545.97;;;19.92;100.00
28927;BME280;16038;47.692;9.400;2023-06-22T04:15:24;96536.75;;;19.58;100.00
28927;BME280;16038;47.692;9.400;2023-06-22T04:17:49;96540.56;;;19.28;100.00
28927;BME280;16038;47.692;9.400;2023-06-22T04:20:14;96542.69;;;19.40;100.00
28927;BME280;16038;47.692;9.400;2023-06-22T04:22:40;96543.84;;;19.79;100.00
28927;BME280;16038;47.692;9.400;2023-06-22T04:25:06;96526.78;;;20.14;100.00
28927;BME280;16038;47.692;9.400;2023-06-22T04:27:33;96524.50;;;20.41;100.00
28927;BME280;16038;47.692;9.400;2023-06-22T04:30:03;96529.59;;;20.59;100.00
28927;BME280;16038;47.692;9.400;2023-06-22T04:32:29;96531.75;;;20.85;100.00
28927;BME280;16038;47.692;9.400;2023-06-22T04:34:55;96526.44;;;21.19;100.00
28927;BME280;16038;47.692;9.400;2023-06-22T04:37:21;96527.72;;;21.57;100.00
28927;BME280;16038;47.692;9.400;2023-06-22T04:39:49;96515.25;;;21.49;100.00
28927;BME280;16038;47.692;9.400;2023-06-22T04:42:14;96504.34;;;19.88;100.00
28927;BME280;16038;47.692;9.400;2023-06-22T04:44:40;96516.13;;;21.04;100.00
28927;BME280;16038;47.692;9.400;2023-06-22T04:47:07;96518.50;;;21.99;100.00
28927;BME280;16038;47.692;9.400;2023-06-22T04:49:35;96508.72;;;22.89;100.00
28927;BME280;16038;47.692;9.400;2023-06-22T04:52:06;96526.03;;;22.84;98.57
28927;BME280;16038;47.692;9.400;2023-06-22T04:54:33;96527.41;;;22.32;100.00
28927;BME280;16038;47.692;9.400;2023-06-22T04:57:00;96515.09;;;21.39;100.00
28927;BME280;16038;47.692;9.400;2023-06-22T04:59:27;96514.19;;;21.30;100.00
28927;BME280;16038;47.692;9.400;2023-06-22T05:01:57;96516.72;;;21.66;100.00
28927;BME280;16038;47.692;9.400;2023-06-22T05:04:23;96507.13;;;22.19;100.00
28927;BME280;16038;47.692;9.400;2023-06-22T05:06:50;96510.47;;;22.61;100.00
28927;BME280;16038;47.692;9.400;2023-06-22T05:09:15;96518.16;;;22.22;100.00
28927;BME280;16038;47.692;9.400;2023-06-22T05:11:41;96521.72;;;21.58;100.00
28927;BME280;16038;47.692;9.400;2023-06-22T05:14:06;96517.50;;;21.92;100.00
28927;BME280;16038;47.692;9.400;2023-06-22T05:16:32;96519.06;;;23.02;100.00
28927;BME280;16038;47.692;9.400;2023-06-22T05:18:58;96531.69;;;22.71;100.00
28927;BME280;16038;47.692;9.400;2023-06-22T05:21:26;96529.31;;;22.35;100.00
28927;BME280;16038;47.692;9.400;2023-06-22T05:23:52;96513.91;;;22.78;100.00
28927;BME280;16038;47.692;9.400;2023-06-22T05:26:19;96510.22;;;23.03;98.54
28927;BME280;16038;47.692;9.400;2023-06-22T05:28:45;96509.16;;;24.26;92.11
28927;BME280;16038;47.692;9.400;2023-06-22T05:31:13;96508.22;;;25.68;80.59
28927;BME280;16038;47.692;9.400;2023-06-22T05:33:38;96510.50;;;25.27;81.94
28927;BME280;16038;47.692;9.400;2023-06-22T05:36:04;96509.25;;;24.82;82.37
28927;BME280;16038;47.692;9.400;2023-06-22T05:38:30;96514.09;;;24.13;86.49
28927;BME280;16038;47.692;9.400;2023-06-22T05:40:56;96509.56;;;25.39;80.13
28927;BME280;16038;47.692;9.400;2023-06-22T05:43:21;96514.50;;;27.41;68.36
28927;BME280;16038;47.692;9.400;2023-06-22T05:45:47;96507.56;;;28.37;61.60
28927;BME280;16038;47.692;9.400;2023-06-22T05:48:12;96505.88;;;26.09;69.85
28927;BME280;16038;47.692;9.400;2023-06-22T05:50:38;96506.59;;;25.15;76.94
28927;BME280;16038;47.692;9.400;2023-06-22T05:53:03;96510.31;;;25.49;74.83
28927;BME280;16038;47.692;9.400;2023-06-22T05:55:29;96509.22;;;25.18;80.14
28927;BME280;16038;47.692;9.400;2023-06-22T05:57:54;96509.47;;;27.06;69.18
28927;BME280;16038;47.692;9.400;2023-06-22T06:00:20;96514.19;;;26.37;72.39
28927;BME280;16038;47.692;9.400;2023-06-22T06:02:47;96515.81;;;28.76;61.68
28927;BME280;16038;47.692;9.400;2023-06-22T06:05:14;96520.50;;;28.29;61.39
28927;BME280;16038;47.692;9.400;2023-06-22T06:07:44;96523.25;;;28.23;59.22
28927;BME280;16038;47.692;9.400;2023-06-22T06:10:10;96516.19;;;26.84;65.12
28927;BME280;16038;47.692;9.400;2023-06-22T06:12:35;96517.31;;;27.41;65.28
28927;BME280;16038;47.692;9.400;2023-06-22T06:15:01;96507.38;;;24.88;78.16
28927;BME280;16038;47.692;9.400;2023-06-22T06:17:27;96513.16;;;24.16;83.34
28927;BME280;16038;47.692;9.400;2023-06-22T06:19:52;96504.34;;;24.45;83.08
28927;BME280;16038;47.692;9.400;2023-06-22T06:22:17;96505.25;;;25.71;77.57
28927;BME280;16038;47.692;9.400;2023-06-22T06:24:44;96514.59;;;26.68;71.41
28927;BME280;16038;47.692;9.400;2023-06-22T06:27:10;96507.84;;;24.77;78.93
28927;BME280;16038;47.692;9.400;2023-06-22T06:29:35;96509.84;;;26.50;71.71
28927;BME280;16038;47.692;9.400;2023-06-22T06:32:01;96516.66;;;25.49;77.42
28927;BME280;16038;47.692;9.400;2023-06-22T06:34:26;96516.50;;;26.86;72.46
28927;BME280;16038;47.692;9.400;2023-06-22T06:36:52;96514.91;;;26.70;70.33
28927;BME280;16038;47.692;9.400;2023-06-22T06:39:17;96503.81;;;24.87;79.12
28927;BME280;16038;47.692;9.400;2023-06-22T06:41:42;96501.38;;;24.21;84.53
28927;BME280;16038;47.692;9.400;2023-06-22T06:44:08;96507.38;;;24.69;83.35
28927;BME280;16038;47.692;9.400;2023-06-22T06:46:33;96504.94;;;24.21;85.23
28927;BME280;16038;47.692;9.400;2023-06-22T06:48:58;96497.72;;;24.02;88.92
28927;BME280;16038;47.692;9.400;2023-06-22T06:51:24;96502.34;;;24.46;85.48
28927;BME280;16038;47.692;9.400;2023-06-22T06:53:49;96496.19;;;24.78;85.08
28927;BME280;16038;47.692;9.400;2023-06-22T06:56:15;96512.66;;;25.13;82.15
28927;BME280;16038;47.692;9.400;2023-06-22T06:58:41;96510.34;;;24.75;82.43
28927;BME280;16038;47.692;9.400;2023-06-22T07:01:08;96492.72;;;26.48;73.12
28927;BME280;16038;47.692;9.400;2023-06-22T07:03:33;96509.44;;;25.76;77.40
28927;BME280;16038;47.692;9.400;2023-06-22T07:05:59;96517.50;;;25.04;83.38
28927;BME280;16038;47.692;9.400;2023-06-22T07:08:24;96520.88;;;27.71;70.63
28927;BME280;16038;47.692;9.400;2023-06-22T07:10:50;96522.59;;;30.58;56.23
28927;BME280;16038;47.692;9.400;2023-06-22T07:13:16;96524.22;;;29.96;56.40
28927;BME280;16038;47.692;9.400;2023-06-22T07:15:42;96524.41;;;28.31;62.97
28927;BME280;16038;47.692;9.400;2023-06-22T07:18:07;96518.69;;;30.50;54.73
28927;BME280;16038;47.692;9.400;2023-06-22T07:20:32;96524.78;;;32.25;49.97
28927;BME280;16038;47.692;9.400;2023-06-22T07:22:58;96530.84;;;32.80;47.52
28927;BME280;16038;47.692;9.400;2023-06-22T07:25:23;96534.13;;;33.90;43.40
28927;BME280;16038;47.692;9.400;2023-06-22T07:28:03;96531.53;;;34.77;40.78
28927;BME280;16038;47.692;9.400;2023-06-22T07:30:33;96527.44;;;33.87;41.70
28927;BME280;16038;47.692;9.400;2023-06-22T07:32:59;96529.63;;;34.36;41.17
28927;BME280;16038;47.692;9.400;2023-06-22T07:35:29;96529.56;;;35.10;39.74
28927;BME280;16038;47.692;9.400;2023-06-22T07:37:54;96538.69;;;34.84;38.66
28927;BME280;16038;47.692;9.400;2023-06-22T07:40:20;96526.66;;;35.16;38.74
28927;BME280;16038;47.692;9.400;2023-06-22T07:42:45;96524.03;;;35.18;37.77
28927;BME280;16038;47.692;9.400;2023-06-22T07:45:13;96523.88;;;36.32;37.54
28927;BME280;16038;47.692;9.400;2023-06-22T07:47:38;96527.28;;;37.10;35.55
28927;BME280;16038;47.692;9.400;2023-06-22T07:50:04;96519.75;;;36.14;36.56
28927;BME280;16038;47.692;9.400;2023-06-22T07:52:31;96520.38;;;36.66;35.74
28927;BME280;16038;47.692;9.400;2023-06-22T07:54:56;96518.06;;;36.24;35.66
28927;BME280;16038;47.692;9.400;2023-06-22T07:57:22;96519.44;;;36.77;35.36
28927;BME280;16038;47.692;9.400;2023-06-22T07:59:47;96526.91;;;36.80;35.30
28927;BME280;16038;47.692;9.400;2023-06-22T08:02:13;96524.03;;;33.17;40.68
28927;BME280;16038;47.692;9.400;2023-06-22T08:04:39;96505.81;;;30.92;48.07
28927;BME280;16038;47.692;9.400;2023-06-22T08:07:04;96511.28;;;29.05;54.09
28927;BME280;16038;47.692;9.400;2023-06-22T08:09:32;96515.88;;;30.56;50.62
28927;BME280;16038;47.692;9.400;2023-06-22T08:11:58;96518.22;;;28.48;55.42
28927;BME280;16038;47.692;9.400;2023-06-22T08:14:27;96528.25;;;29.10;57.33
28927;BME280;16038;47.692;9.400;2023-06-22T08:16:53;96538.22;;;31.02;50.10
28927;BME280;16038;47.692;9.400;2023-06-22T08:19:18;96554.94;;;32.06;48.26
28927;BME280;16038;47.692;9.400;2023-06-22T08:21:44;96577.66;;;30.74;52.40
28927;BME280;16038;47.692;9.400;2023-06-22T08:24:09;96604.50;;;29.89;55.42
28927;BME280;16038;47.692;9.400;2023-06-22T08:26:35;96614.19;;;29.15;58.10
28927;BME280;16038;47.692;9.400;2023-06-22T08:29:03;96607.63;;;28.17;61.84
28927;BME280;16038;47.692;9.400;2023-06-22T08:31:30;96606.25;;;27.83;64.24
28927;BME280;16038;47.692;9.400;2023-06-22T08:33:55;96603.75;;;27.70;65.58
28927;BME280;16038;47.692;9.400;2023-06-22T08:36:21;96598.88;;;27.41;67.88
28927;BME280;16038;47.692;9.400;2023-06-22T08:38:46;96629.31;;;27.18;68.01
28927;BME280;16038;47.692;9.400;2023-06-22T08:41:15;96621.63;;;27.19;69.49
28927;BME280;16038;47.692;9.400;2023-06-22T08:43:40;96604.56;;;27.32;68.42
28927;BME280;16038;47.692;9.400;2023-06-22T08:46:06;96616.91;;;27.49;68.32
28927;BME280;16038;47.692;9.400;2023-06-22T08:48:32;96644.44;;;27.45;67.96
28927;BME280;16038;47.692;9.400;2023-06-22T08:50:57;96610.13;;;27.71;67.07
28927;BME280;16038;47.692;9.400;2023-06-22T08:53:22;96623.94;;;28.13;64.92
28927;BME280;16038;47.692;9.400;2023-06-22T08:55:48;96630.53;;;28.40;63.38
28927;BME280;16038;47.692;9.400;2023-06-22T08:58:16;96611.91;;;28.28;64.10
28927;BME280;16038;47.692;9.400;2023-06-22T09:00:41;96615.56;;;27.89;65.94
28927;BME280;16038;47.692;9.400;2023-06-22T09:03:06;96636.63;;;27.79;66.87
28927;BME280;16038;47.692;9.400;2023-06-22T09:05:32;96631.81;;;27.94;67.51
28927;BME280;16038;47.692;9.400;2023-06-22T09:07:57;96639.25;;;28.92;63.25
28927;BME280;16038;47.692;9.400;2023-06-22T09:10:24;96633.91;;;29.56;59.93
28927;BME280;16038;47.692;9.400;2023-06-22T09:12:50;96632.66;;;29.83;59.58
28927;BME280;16038;47.692;9.400;2023-06-22T09:15:15;96633.38;;;30.04;58.04
28927;BME280;16038;47.692;9.400;2023-06-22T09:17:41;96621.34;;;30.36;56.29
28927;BME280;16038;47.692;9.400;2023-06-22T09:20:07;96625.00;;;30.16;55.47
28927;BME280;16038;47.692;9.400;2023-06-22T09:22:35;96614.78;;;29.92;56.10
28927;BME280;16038;47.692;9.400;2023-06-22T09:25:01;96619.94;;;30.20;54.41
28927;BME280;16038;47.692;9.400;2023-06-22T09:27:26;96613.69;;;30.42;54.55
28927;BME280;16038;47.692;9.400;2023-06-22T09:29:52;96614.56;;;30.59;53.27
28927;BME280;16038;47.692;9.400;2023-06-22T09:32:17;96605.69;;;30.35;53.57
28927;BME280;16038;47.692;9.400;2023-06-22T09:34:42;96601.00;;;31.06;52.02
28927;BME280;16038;47.692;9.400;2023-06-22T09:37:08;96595.13;;;31.21;51.73
28927;BME280;16038;47.692;9.400;2023-06-22T09:39:33;96588.34;;;30.96;52.29
28927;BME280;16038;47.692;9.400;2023-06-22T09:41:59;96575.59;;;31.29;49.87
28927;BME280;16038;47.692;9.400;2023-06-22T09:44:25;96568.28;;;30.94;51.08
28927;BME280;16038;47.692;9.400;2023-06-22T09:46:51;96560.81;;;31.68;49.99
28927;BME280;16038;47.692;9.400;2023-06-22T09:49:16;96562.41;;;32.20;48.48
28927;BME280;16038;47.692;9.400;2023-06-22T09:51:41;96562.63;;;32.50;47.29
28927;BME280;16038;47.692;9.400;2023-06-22T09:54:07;96575.28;;;32.32;47.47
28927;BME280;16038;47.692;9.400;2023-06-22T09:56:32;96573.94;;;31.71;48.50
28927;BME280;16038;47.692;9.400;2023-06-22T09:58:57;96575.75;;;31.91;48.15
28927;BME280;16038;47.692;9.400;2023-06-22T10:01:23;96561.09;;;31.98;48.74
28927;BME280;16038;47.692;9.400;2023-06-22T10:03:51;96553.41;;;29.61;54.17
28927;BME280;16038;47.692;9.400;2023-06-22T10:06:19;96556.25;;;31.05;51.98
28927;BME280;16038;47.692;9.400;2023-06-22T10:08:45;96552.25;;;30.80;51.26
28927;BME280;16038;47.692;9.400;2023-06-22T10:11:10;96540.56;;;30.55;51.43
28927;BME280;16038;47.692;9.400;2023-06-22T10:13:36;96539.66;;;30.00;53.95
28927;BME280;16038;47.692;9.400;2023-06-22T10:16:01;96533.88;;;30.15;53.02
28927;BME280;16038;47.692;9.400;2023-06-22T10:18:27;96537.16;;;30.08;54.32
28927;BME280;16038;47.692;9.400;2023-06-22T10:20:52;96543.22;;;29.95;54.24
28927;BME280;16038;47.692;9.400;2023-06-22T10:23:19;96542.97;;;31.45;50.10
28927;BME280;16038;47.692;9.400;2023-06-22T10:25:45;96537.69;;;30.44;52.10
28927;BME280;16038;47.692;9.400;2023-06-22T10:28:10;96534.31;;;29.76;55.34
28927;BME280;16038;47.692;9.400;2023-06-22T10:30:36;96531.38;;;30.28;53.71
28927;BME280;16038;47.692;9.400;2023-06-22T10:33:04;96524.47;;;28.72;59.01
28927;BME280;16038;47.692;9.400;2023-06-22T10:35:30;96518.19;;;28.83;58.83
28927;BME280;16038;47.692;9.400;2023-06-22T10:37:55;96526.00;;;29.67;56.46
28927;BME280;16038;47.692;9.400;2023-06-22T10:40:21;96511.38;;;30.81;52.40
28927;BME280;16038;47.692;9.400;2023-06-22T10:42:46;96516.69;;;30.56;52.95
28927;BME280;16038;47.692;9.400;2023-06-22T10:45:12;96515.09;;;31.04;51.83
28927;BME280;16038;47.692;9.400;2023-06-22T10:47:37;96505.13;;;31.25;52.16
28927;BME280;16038;47.692;9.400;2023-06-22T10:50:03;96513.97;;;32.12;49.89
28927;BME280;16038;47.692;9.400;2023-06-22T10:52:29;96505.00;;;29.42;56.51
28927;BME280;16038;47.692;9.400;2023-06-22T10:54:55;96502.56;;;29.81;55.92
28927;BME280;16038;47.692;9.400;2023-06-22T10:57:21;96500.19;;;31.03;52.74
28927;BME280;16038;47.692;9.400;2023-06-22T10:59:47;96506.78;;;32.06;49.33
28927;BME280;16038;47.692;9.400;2023-06-22T11:02:12;96523.19;;;32.41;47.21
28927;BME280;16038;47.692;9.400;2023-06-22T11:04:38;96517.56;;;31.79;47.40
28927;BME280;16038;47.692;9.400;2023-06-22T11:07:03;96512.22;;;30.38;51.77
28927;BME280;16038;47.692;9.400;2023-06-22T11:09:29;96504.72;;;30.90;51.55
28927;BME280;16038;47.692;9.400;2023-06-22T11:11:55;96516.78;;;31.50;49.68
28927;BME280;16038;47.692;9.400;2023-06-22T11:14:21;96512.16;;;29.37;54.65
28927;BME280;16038;47.692;9.400;2023-06-22T11:16:47;96506.31;;;30.36;51.34
28927;BME280;16038;47.692;9.400;2023-06-22T11:19:13;96498.81;;;30.87;50.14
28927;BME280;16038;47.692;9.400;2023-06-22T11:21:38;96495.34;;;31.15;48.36
28927;BME280;16038;47.692;9.400;2023-06-22T11:24:04;96494.53;;;30.98;50.03
28927;BME280;16038;47.692;9.400;2023-06-22T11:26:30;96495.88;;;31.31;49.07
28927;BME280;16038;47.692;9.400;2023-06-22T11:28:57;96501.84;;;31.78;48.05
28927;BME280;16038;47.692;9.400;2023-06-22T11:31:22;96502.63;;;30.73;50.08
28927;BME280;16038;47.692;9.400;2023-06-22T11:33:48;96492.53;;;31.21;50.21
28927;BME280;16038;47.692;9.400;2023-06-22T11:36:14;96501.09;;;31.60;47.90
28927;BME280;16038;47.692;9.400;2023-06-22T11:38:40;96489.25;;;31.51;48.76
28927;BME280;16038;47.692;9.400;2023-06-22T11:41:06;96492.03;;;31.39;48.34
28927;BME280;16038;47.692;9.400;2023-06-22T11:43:32;96497.00;;;31.78;47.78
28927;BME280;16038;47.692;9.400;2023-06-22T11:45:57;96491.06;;;32.05;46.71
28927;BME280;16038;47.692;9.400;2023-06-22T11:48:24;96493.09;;;32.27;46.65
28927;BME280;16038;47.692;9.400;2023-06-22T11:50:49;96492.78;;;32.53;46.19
28927;BME280;16038;47.692;9.400;2023-06-22T11:53:15;96497.97;;;32.43;46.14
28927;BME280;16038;47.692;9.400;2023-06-22T11:55:42;96500.28;;;32.39;45.78
28927;BME280;16038;47.692;9.400;2023-06-22T11:58:07;96497.78;;;32.07;46.46
28927;BME280;16038;47.692;9.400;2023-06-22T12:00:33;96492.34;;;31.92;47.15
28927;BME280;16038;47.692;9.400;2023-06-22T12:02:59;96489.75;;;31.89;47.74
28927;BME280;16038;47.692;9.400;2023-06-22T12:05:24;96500.84;;;31.75;47.94
28927;BME280;16038;47.692;9.400;2023-06-22T12:07:52;96493.88;;;31.76;48.48
28927;BME280;16038;47.692;9.400;2023-06-22T12:10:18;96491.84;;;31.71;47.63
28927;BME280;16038;47.692;9.400;2023-06-22T12:12:43;96494.16;;;31.90;48.06
28927;BME280;16038;47.692;9.400;2023-06-22T12:15:09;96494.38;;;32.03;47.26
28927;BME280;16038;47.692;9.400;2023-06-22T12:17:35;96490.53;;;31.61;47.94
28927;BME280;16038;47.692;9.400;2023-06-22T12:20:01;96483.50;;;31.17;49.22
28927;BME280;16038;47.692;9.400;2023-06-22T12:22:27;96483.88;;;31.70;48.72
28927;BME280;16038;47.692;9.400;2023-06-22T12:24:53;96490.53;;;31.83;48.48
28927;BME280;16038;47.692;9.400;2023-06-22T12:27:18;96498.25;;;31.77;49.44
28927;BME280;16038;47.692;9.400;2023-06-22T12:29:46;96497.94;;;31.19;50.05
28927;BME280;16038;47.692;9.400;2023-06-22T12:32:13;96496.97;;;31.67;49.92
28927;BME280;16038;47.692;9.400;2023-06-22T12:34:39;96495.97;;;32.04;48.76
28927;BME280;16038;47.692;9.400;2023-06-22T12:37:05;96493.63;;;32.25;48.30
28927;BME280;16038;47.692;9.400;2023-06-22T12:39:31;96493.34;;;32.23;48.30
28927;BME280;16038;47.692;9.400;2023-06-22T12:41:57;96494.88;;;32.35;47.79
28927;BME280;16038;47.692;9.400;2023-06-22T12:44:22;96478.16;;;31.98;48.55
28927;BME280;16038;47.692;9.400;2023-06-22T12:46:48;96484.34;;;32.19;48.03
28927;BME280;16038;47.692;9.400;2023-06-22T12:49:13;96479.94;;;32.35;47.77
28927;BME280;16038;47.692;9.400;2023-06-22T12:51:43;96481.00;;;32.15;48.18
28927;BME280;16038;47.692;9.400;2023-06-22T12:54:09;96486.16;;;31.82;48.84
28927;BME280;16038;47.692;9.400;2023-06-22T12:56:34;96487.69;;;32.23;48.03
28927;BME280;16038;47.692;9.400;2023-06-22T12:59:00;96486.38;;;32.35;47.99
28927;BME280;16038;47.692;9.400;2023-06-22T13:01:28;96483.50;;;32.41;47.84
28927;BME280;16038;47.692;9.400;2023-06-22T13:03:53;96483.50;;;32.52;47.95